sensor_id;sensor_type;location;lat;lon;timestamp;temperature;humidity
13464;DHT22;6804;48.774;9.174;2023-02-28T00:01:43;2.20;96.70
13464;DHT22;6804;48.774;9.174;2023-02-28T00:04:10;2.10;97.00
13464;DHT22;6804;48.774;9.174;2023-02-28T00:06:37;2.20;97.20
13464;DHT22;6804;48.774;9.174;2023-02-28T00:09:04;2.10;96.90
13464;DHT22;6804;48.774;9.174;2023-02-28T00:11:36;2.10;97.00
13464;DHT22;6804;48.774;9.174;2023-02-28T00:14:06;2.10;97.30
13464;DHT22;6804;48.774;9.174;2023-02-28T00:16:33;2.10;97.30
13464;DHT22;6804;48.774;9.174;2023-02-28T00:19:00;2.10;97.00
13464;DHT22;6804;48.774;9.174;2023-02-28T00:21:27;2.10;97.20
13464;DHT22;6804;48.774;9.174;2023-02-28T00:23:55;2.10;97.40
13464;DHT22;6804;48.774;9.174;2023-02-28T00:26:25;2.10;97.30
13464;DHT22;6804;48.774;9.174;2023-02-28T00:28:54;2.10;97.20
13464;DHT22;6804;48.774;9.174;2023-02-28T00:31:24;2.10;97.20
13464;DHT22;6804;48.774;9.174;2023-02-28T00:33:51;1.80;97.10
13464;DHT22;6804;48.774;9.174;2023-02-28T00:36:19;1.80;97.80
13464;DHT22;6804;48.774;9.174;2023-02-28T00:38:46;1.70;98.00
13464;DHT22;6804;48.774;9.174;2023-02-28T00:41:22;1.80;98.00
13464;DHT22;6804;48.774;9.174;2023-02-28T00:43:49;1.80;97.90
13464;DHT22;6804;48.774;9.174;2023-02-28T00:46:18;1.90;97.80
13464;DHT22;6804;48.774;9.174;2023-02-28T00:48:45;1.90;97.80
13464;DHT22;6804;48.774;9.174;2023-02-28T00:51:14;1.90;97.90
13464;DHT22;6804;48.774;9.174;2023-02-28T00:53:41;2.00;97.60
13464;DHT22;6804;48.774;9.174;2023-02-28T00:56:09;1.80;97.80
13464;DHT22;6804;48.774;9.174;2023-02-28T00:58:36;1.90;98.30
13464;DHT22;6804;48.774;9.174;2023-02-28T01:01:03;1.90;98.10
13464;DHT22;6804;48.774;9.174;2023-02-28T01:03:32;1.90;98.10
13464;DHT22;6804;48.774;9.174;2023-02-28T01:06:00;1.90;98.20
13464;DHT22;6804;48.774;9.174;2023-02-28T01:08:27;2.00;98.00
13464;DHT22;6804;48.774;9.174;2023-02-28T01:10:54;2.00;98.20
13464;DHT22;6804;48.774;9.174;2023-02-28T01:13:22;2.00;97.90
13464;DHT22;6804;48.774;9.174;2023-02-28T01:15:52;1.90;98.40
13464;DHT22;6804;48.774;9.174;2023-02-28T01:18:20;1.90;98.10
13464;DHT22;6804;48.774;9.174;2023-02-28T01:20:49;1.90;98.50
13464;DHT22;6804;48.774;9.174;2023-02-28T01:23:18;1.80;98.40
13464;DHT22;6804;48.774;9.174;2023-02-28T01:25:46;1.80;98.80
13464;DHT22;6804;48.774;9.174;2023-02-28T01:28:16;1.60;99.10
13464;DHT22;6804;48.774;9.174;2023-02-28T01:30:47;1.50;99.50
13464;DHT22;6804;48.774;9.174;2023-02-28T01:33:18;1.60;99.70
13464;DHT22;6804;48.774;9.174;2023-02-28T01:35:46;1.60;99.30
13464;DHT22;6804;48.774;9.174;2023-02-28T01:38:18;1.60;99.40
13464;DHT22;6804;48.774;9.174;2023-02-28T01:40:45;1.60;99.60
13464;DHT22;6804;48.774;9.174;2023-02-28T01:43:21;1.50;99.60
13464;DHT22;6804;48.774;9.174;2023-02-28T01:45:49;1.50;99.90
13464;DHT22;6804;48.774;9.174;2023-02-28T01:48:17;1.40;99.90
13464;DHT22;6804;48.774;9.174;2023-02-28T01:50:47;1.60;99.90
13464;DHT22;6804;48.774;9.174;2023-02-28T01:53:23;1.40;99.90
13464;DHT22;6804;48.774;9.174;2023-02-28T01:55:59;1.40;99.90
13464;DHT22;6804;48.774;9.174;2023-02-28T01:58:27;1.50;99.90
13464;DHT22;6804;48.774;9.174;2023-02-28T02:00:55;1.50;99.90
13464;DHT22;6804;48.774;9.174;2023-02-28T02:03:23;1.70;99.90
13464;DHT22;6804;48.774;9.174;2023-02-28T02:05:51;1.80;99.90
13464;DHT22;6804;48.774;9.174;2023-02-28T02:08:22;1.80;99.90
13464;DHT22;6804;48.774;9.174;2023-02-28T02:10:52;1.80;99.90
13464;DHT22;6804;48.774;9.174;2023-02-28T02:13:47;1.80;99.90
13464;DHT22;6804;48.774;9.174;2023-02-28T02:16:33;1.80;99.90
13464;DHT22;6804;48.774;9.174;2023-02-28T02:19:11;1.80;99.90
13464;DHT22;6804;48.774;9.174;2023-02-28T02:25:15;1.80;99.90
13464;DHT22;6804;48.774;9.174;2023-02-28T02:28:10;1.70;99.90
13464;DHT22;6804;48.774;9.174;2023-02-28T02:31:03;1.70;99.90
13464;DHT22;6804;48.774;9.174;2023-02-28T02:34:07;1.60;99.90
13464;DHT22;6804;48.774;9.174;2023-02-28T02:36:40;1.70;99.90
13464;DHT22;6804;48.774;9.174;2023-02-28T02:39:17;1.60;99.90
13464;DHT22;6804;48.774;9.174;2023-02-28T02:41:51;1.70;99.90
13464;DHT22;6804;48.774;9.174;2023-02-28T02:44:21;1.70;99.90
13464;DHT22;6804;48.774;9.174;2023-02-28T02:46:52;1.70;99.90
13464;DHT22;6804;48.774;9.174;2023-02-28T02:49:30;1.70;99.90
13464;DHT22;6804;48.774;9.174;2023-02-28T02:52:03;1.70;99.90
13464;DHT22;6804;48.774;9.174;2023-02-28T02:54:34;1.80;99.90
13464;DHT22;6804;48.774;9.174;2023-02-28T02:57:05;1.80;99.90
13464;DHT22;6804;48.774;9.174;2023-02-28T02:59:35;1.80;99.90
13464;DHT22;6804;48.774;9.174;2023-02-28T03:02:06;1.90;99.90
13464;DHT22;6804;48.774;9.174;2023-02-28T03:04:42;1.90;99.90
13464;DHT22;6804;48.774;9.174;2023-02-28T03:07:13;1.80;99.90
13464;DHT22;6804;48.774;9.174;2023-02-28T03:09:49;1.80;99.90
13464;DHT22;6804;48.774;9.174;2023-02-28T03:12:17;1.70;99.90
13464;DHT22;6804;48.774;9.174;2023-02-28T03:14:59;1.60;99.90
13464;DHT22;6804;48.774;9.174;2023-02-28T03:17:45;1.50;99.90
13464;DHT22;6804;48.774;9.174;2023-02-28T03:20:28;1.60;99.90
13464;DHT22;6804;48.774;9.174;2023-02-28T03:23:07;1.70;99.90
13464;DHT22;6804;48.774;9.174;2023-02-28T03:25:50;1.70;99.90
13464;DHT22;6804;48.774;9.174;2023-02-28T03:28:23;1.70;99.90
13464;DHT22;6804;48.774;9.174;2023-02-28T03:30:58;1.70;99.90
13464;DHT22;6804;48.774;9.174;2023-02-28T03:33:31;1.80;99.90
13464;DHT22;6804;48.774;9.174;2023-02-28T03:36:08;1.70;99.90
13464;DHT22;6804;48.774;9.174;2023-02-28T03:38:41;1.70;99.90
13464;DHT22;6804;48.774;9.174;2023-02-28T03:41:14;1.50;99.90
13464;DHT22;6804;48.774;9.174;2023-02-28T03:43:45;1.50;99.90
13464;DHT22;6804;48.774;9.174;2023-02-28T03:46:16;1.60;99.90
13464;DHT22;6804;48.774;9.174;2023-02-28T03:48:53;1.70;99.90
13464;DHT22;6804;48.774;9.174;2023-02-28T03:51:24;1.50;99.90
13464;DHT22;6804;48.774;9.174;2023-02-28T03:53:54;1.50;99.90
13464;DHT22;6804;48.774;9.174;2023-02-28T03:56:27;1.50;99.90
13464;DHT22;6804;48.774;9.174;2023-02-28T03:59:04;1.60;99.90
13464;DHT22;6804;48.774;9.174;2023-02-28T04:01:35;1.60;99.90
13464;DHT22;6804;48.774;9.174;2023-02-28T04:04:07;1.60;99.90
13464;DHT22;6804;48.774;9.174;2023-02-28T04:06:35;1.50;99.90
13464;DHT22;6804;48.774;9.174;2023-02-28T04:09:04;1.50;99.90
13464;DHT22;6804;48.774;9.174;2023-02-28T04:11:34;1.60;99.90
13464;DHT22;6804;48.774;9.174;2023-02-28T04:14:02;1.60;99.90
13464;DHT22;6804;48.774;9.174;2023-02-28T04:16:30;1.70;99.90
13464;DHT22;6804;48.774;9.174;2023-02-28T04:18:57;1.70;99.90
13464;DHT22;6804;48.774;9.174;2023-02-28T04:21:27;1.80;99.90
13464;DHT22;6804;48.774;9.174;2023-02-28T04:23:57;1.80;99.90
13464;DHT22;6804;48.774;9.174;2023-02-28T04:26:27;1.80;99.90
13464;DHT22;6804;48.774;9.174;2023-02-28T04:28:55;1.80;99.90
13464;DHT22;6804;48.774;9.174;2023-02-28T04:31:25;1.80;99.90
13464;DHT22;6804;48.774;9.174;2023-02-28T04:33:55;1.80;99.90
13464;DHT22;6804;48.774;9.174;2023-02-28T04:36:23;1.80;99.90
13464;DHT22;6804;48.774;9.174;2023-02-28T04:38:50;1.80;99.90
13464;DHT22;6804;48.774;9.174;2023-02-28T04:41:21;1.80;99.90
13464;DHT22;6804;48.774;9.174;2023-02-28T04:43:49;1.90;99.90
13464;DHT22;6804;48.774;9.174;2023-02-28T04:46:22;1.90;99.90
13464;DHT22;6804;48.774;9.174;2023-02-28T04:48:49;1.90;99.90
13464;DHT22;6804;48.774;9.174;2023-02-28T04:51:18;2.00;99.90
13464;DHT22;6804;48.774;9.174;2023-02-28T04:53:46;2.00;99.90
13464;DHT22;6804;48.774;9.174;2023-02-28T04:56:15;2.00;99.90
13464;DHT22;6804;48.774;9.174;2023-02-28T04:58:43;1.90;99.90
13464;DHT22;6804;48.774;9.174;2023-02-28T05:01:21;1.90;99.90
13464;DHT22;6804;48.774;9.174;2023-02-28T05:03:51;1.90;99.90
13464;DHT22;6804;48.774;9.174;2023-02-28T05:06:19;1.80;99.90
13464;DHT22;6804;48.774;9.174;2023-02-28T05:08:47;1.80;99.90
13464;DHT22;6804;48.774;9.174;2023-02-28T05:11:16;1.90;99.90
13464;DHT22;6804;48.774;9.174;2023-02-28T05:13:45;1.90;99.90
13464;DHT22;6804;48.774;9.174;2023-02-28T05:16:17;1.90;99.90
13464;DHT22;6804;48.774;9.174;2023-02-28T05:18:44;1.90;99.90
13464;DHT22;6804;48.774;9.174;2023-02-28T05:21:24;1.90;99.90
13464;DHT22;6804;48.774;9.174;2023-02-28T05:23:52;2.00;99.90
13464;DHT22;6804;48.774;9.174;2023-02-28T05:26:22;1.90;99.90
13464;DHT22;6804;48.774;9.174;2023-02-28T05:28:54;1.90;99.90
13464;DHT22;6804;48.774;9.174;2023-02-28T05:31:22;1.80;99.90
13464;DHT22;6804;48.774;9.174;2023-02-28T05:33:49;1.80;99.90
13464;DHT22;6804;48.774;9.174;2023-02-28T05:36:19;1.80;99.90
13464;DHT22;6804;48.774;9.174;2023-02-28T05:38:47;1.90;99.90
13464;DHT22;6804;48.774;9.174;2023-02-28T05:41:14;1.70;99.90
13464;DHT22;6804;48.774;9.174;2023-02-28T05:43:42;1.80;99.90
13464;DHT22;6804;48.774;9.174;2023-02-28T05:46:12;1.80;99.90
13464;DHT22;6804;48.774;9.174;2023-02-28T05:48:45;1.70;99.90
13464;DHT22;6804;48.774;9.174;2023-02-28T05:51:12;1.80;99.90
13464;DHT22;6804;48.774;9.174;2023-02-28T05:53:40;1.80;99.90
13464;DHT22;6804;48.774;9.174;2023-02-28T05:56:07;1.80;99.90
13464;DHT22;6804;48.774;9.174;2023-02-28T05:58:36;1.80;99.90
13464;DHT22;6804;48.774;9.174;2023-02-28T06:01:20;1.80;99.90
13464;DHT22;6804;48.774;9.174;2023-02-28T06:03:48;1.80;99.90
13464;DHT22;6804;48.774;9.174;2023-02-28T06:06:17;1.80;99.90
13464;DHT22;6804;48.774;9.174;2023-02-28T06:08:47;1.80;99.90
13464;DHT22;6804;48.774;9.174;2023-02-28T06:11:14;1.80;99.90
13464;DHT22;6804;48.774;9.174;2023-02-28T06:13:42;1.80;99.90
13464;DHT22;6804;48.774;9.174;2023-02-28T06:16:12;1.80;99.90
13464;DHT22;6804;48.774;9.174;2023-02-28T06:18:40;1.80;99.90
13464;DHT22;6804;48.774;9.174;2023-02-28T06:21:07;1.90;99.90
13464;DHT22;6804;48.774;9.174;2023-02-28T06:23:38;1.90;99.90
13464;DHT22;6804;48.774;9.174;2023-02-28T06:26:05;1.80;99.90
13464;DHT22;6804;48.774;9.174;2023-02-28T06:28:38;1.80;99.90
13464;DHT22;6804;48.774;9.174;2023-02-28T06:31:07;1.80;99.90
13464;DHT22;6804;48.774;9.174;2023-02-28T06:33:40;1.90;99.90
13464;DHT22;6804;48.774;9.174;2023-02-28T06:36:09;1.90;99.90
13464;DHT22;6804;48.774;9.174;2023-02-28T06:38:39;1.90;99.90
13464;DHT22;6804;48.774;9.174;2023-02-28T06:41:07;1.90;99.90
13464;DHT22;6804;48.774;9.174;2023-02-28T06:43:38;1.90;99.90
13464;DHT22;6804;48.774;9.174;2023-02-28T06:46:11;1.90;99.90
13464;DHT22;6804;48.774;9.174;2023-02-28T06:48:42;1.90;99.90
13464;DHT22;6804;48.774;9.174;2023-02-28T06:51:11;1.90;99.90
13464;DHT22;6804;48.774;9.174;2023-02-28T06:53:40;2.00;99.90
13464;DHT22;6804;48.774;9.174;2023-02-28T06:56:09;2.00;99.90
13464;DHT22;6804;48.774;9.174;2023-02-28T06:58:37;1.90;99.90
13464;DHT22;6804;48.774;9.174;2023-02-28T07:01:05;2.00;99.90
13464;DHT22;6804;48.774;9.174;2023-02-28T07:03:34;2.00;99.90
13464;DHT22;6804;48.774;9.174;2023-02-28T07:06:05;2.10;99.90
13464;DHT22;6804;48.774;9.174;2023-02-28T07:08:32;2.10;99.90
13464;DHT22;6804;48.774;9.174;2023-02-28T07:11:03;2.00;99.90
13464;DHT22;6804;48.774;9.174;2023-02-28T07:13:30;1.90;99.90
13464;DHT22;6804;48.774;9.174;2023-02-28T07:15:59;2.00;99.90
13464;DHT22;6804;48.774;9.174;2023-02-28T07:18:27;2.10;99.90
13464;DHT22;6804;48.774;9.174;2023-02-28T07:20:54;2.10;99.90
13464;DHT22;6804;48.774;9.174;2023-02-28T07:23:24;2.20;99.90
13464;DHT22;6804;48.774;9.174;2023-02-28T07:25:51;2.20;99.90
13464;DHT22;6804;48.774;9.174;2023-02-28T07:28:19;2.10;99.90
13464;DHT22;6804;48.774;9.174;2023-02-28T07:30:46;2.10;99.90
13464;DHT22;6804;48.774;9.174;2023-02-28T07:33:14;2.10;99.90
13464;DHT22;6804;48.774;9.174;2023-02-28T07:35:42;2.00;99.90
13464;DHT22;6804;48.774;9.174;2023-02-28T07:38:10;2.00;99.90
13464;DHT22;6804;48.774;9.174;2023-02-28T07:40:40;2.00;99.90
13464;DHT22;6804;48.774;9.174;2023-02-28T07:43:10;2.10;99.90
13464;DHT22;6804;48.774;9.174;2023-02-28T07:45:38;2.10;99.90
13464;DHT22;6804;48.774;9.174;2023-02-28T07:48:09;2.20;99.90
13464;DHT22;6804;48.774;9.174;2023-02-28T07:50:39;2.30;99.90
13464;DHT22;6804;48.774;9.174;2023-02-28T07:53:14;2.20;99.90
13464;DHT22;6804;48.774;9.174;2023-02-28T07:55:54;2.10;99.90
13464;DHT22;6804;48.774;9.174;2023-02-28T07:58:28;2.10;99.90
13464;DHT22;6804;48.774;9.174;2023-02-28T08:01:06;2.00;99.90
13464;DHT22;6804;48.774;9.174;2023-02-28T08:03:34;1.70;99.90
13464;DHT22;6804;48.774;9.174;2023-02-28T08:06:03;1.70;99.90
13464;DHT22;6804;48.774;9.174;2023-02-28T08:08:31;1.70;99.90
13464;DHT22;6804;48.774;9.174;2023-02-28T08:11:00;1.60;99.90
13464;DHT22;6804;48.774;9.174;2023-02-28T08:13:30;1.40;99.90
13464;DHT22;6804;48.774;9.174;2023-02-28T08:15:57;1.40;99.90
13464;DHT22;6804;48.774;9.174;2023-02-28T08:18:28;1.30;99.90
13464;DHT22;6804;48.774;9.174;2023-02-28T08:20:55;1.20;99.90
13464;DHT22;6804;48.774;9.174;2023-02-28T08:23:23;1.30;99.90
13464;DHT22;6804;48.774;9.174;2023-02-28T08:25:53;1.30;99.90
13464;DHT22;6804;48.774;9.174;2023-02-28T08:28:23;1.30;99.90
13464;DHT22;6804;48.774;9.174;2023-02-28T08:30:52;1.50;99.90
13464;DHT22;6804;48.774;9.174;2023-02-28T08:33:23;1.60;99.90
13464;DHT22;6804;48.774;9.174;2023-02-28T08:35:53;1.60;99.90
13464;DHT22;6804;48.774;9.174;2023-02-28T08:38:23;1.70;99.90
13464;DHT22;6804;48.774;9.174;2023-02-28T08:41:00;1.80;99.90
13464;DHT22;6804;48.774;9.174;2023-02-28T08:43:32;1.80;99.90
13464;DHT22;6804;48.774;9.174;2023-02-28T08:46:00;1.80;99.90
13464;DHT22;6804;48.774;9.174;2023-02-28T08:48:30;1.80;99.90
13464;DHT22;6804;48.774;9.174;2023-02-28T08:51:03;1.80;99.90
13464;DHT22;6804;48.774;9.174;2023-02-28T08:53:30;1.70;99.90
13464;DHT22;6804;48.774;9.174;2023-02-28T08:56:02;1.50;99.90
13464;DHT22;6804;48.774;9.174;2023-02-28T08:58:35;1.60;99.90
13464;DHT22;6804;48.774;9.174;2023-02-28T09:01:08;1.80;99.90
13464;DHT22;6804;48.774;9.174;2023-02-28T09:03:36;1.50;99.90
13464;DHT22;6804;48.774;9.174;2023-02-28T09:06:04;1.40;99.90
13464;DHT22;6804;48.774;9.174;2023-02-28T09:08:31;1.40;99.90
13464;DHT22;6804;48.774;9.174;2023-02-28T09:10:59;1.40;99.90
13464;DHT22;6804;48.774;9.174;2023-02-28T09:13:36;1.50;99.90
13464;DHT22;6804;48.774;9.174;2023-02-28T09:16:06;1.50;99.90
13464;DHT22;6804;48.774;9.174;2023-02-28T09:18:38;1.60;99.90
13464;DHT22;6804;48.774;9.174;2023-02-28T09:21:07;1.80;99.90
13464;DHT22;6804;48.774;9.174;2023-02-28T09:23:40;2.00;99.90
13464;DHT22;6804;48.774;9.174;2023-02-28T09:26:12;2.00;99.90
13464;DHT22;6804;48.774;9.174;2023-02-28T09:28:44;1.80;99.90
13464;DHT22;6804;48.774;9.174;2023-02-28T09:31:13;1.90;99.90
13464;DHT22;6804;48.774;9.174;2023-02-28T09:33:44;2.00;99.90
13464;DHT22;6804;48.774;9.174;2023-02-28T09:36:14;2.00;99.90
13464;DHT22;6804;48.774;9.174;2023-02-28T09:38:44;2.10;99.90
13464;DHT22;6804;48.774;9.174;2023-02-28T09:41:14;2.20;99.90
13464;DHT22;6804;48.774;9.174;2023-02-28T09:43:47;2.30;99.90
13464;DHT22;6804;48.774;9.174;2023-02-28T09:46:30;2.20;99.90
13464;DHT22;6804;48.774;9.174;2023-02-28T09:49:02;2.20;99.90
13464;DHT22;6804;48.774;9.174;2023-02-28T09:51:39;2.30;99.90
13464;DHT22;6804;48.774;9.174;2023-02-28T09:54:13;2.40;99.90
13464;DHT22;6804;48.774;9.174;2023-02-28T09:56:47;2.50;99.90
13464;DHT22;6804;48.774;9.174;2023-02-28T09:59:29;2.60;99.90
13464;DHT22;6804;48.774;9.174;2023-02-28T10:02:08;2.50;99.90
13464;DHT22;6804;48.774;9.174;2023-02-28T10:04:48;2.60;99.90
13464;DHT22;6804;48.774;9.174;2023-02-28T10:07:44;2.60;99.90
13464;DHT22;6804;48.774;9.174;2023-02-28T10:10:21;2.30;99.90
13464;DHT22;6804;48.774;9.174;2023-02-28T10:12:55;2.10;99.90
13464;DHT22;6804;48.774;9.174;2023-02-28T10:15:29;2.10;99.90
13464;DHT22;6804;48.774;9.174;2023-02-28T10:18:01;2.20;99.90
13464;DHT22;6804;48.774;9.174;2023-02-28T10:20:33;2.30;99.90
13464;DHT22;6804;48.774;9.174;2023-02-28T10:23:12;2.20;99.90
13464;DHT22;6804;48.774;9.174;2023-02-28T10:25:45;2.00;99.90
13464;DHT22;6804;48.774;9.174;2023-02-28T10:28:16;1.80;99.90
13464;DHT22;6804;48.774;9.174;2023-02-28T10:30:48;1.90;99.90
13464;DHT22;6804;48.774;9.174;2023-02-28T10:33:25;1.90;99.90
13464;DHT22;6804;48.774;9.174;2023-02-28T10:35:55;2.00;99.90
13464;DHT22;6804;48.774;9.174;2023-02-28T10:38:24;2.10;99.90
13464;DHT22;6804;48.774;9.174;2023-02-28T10:41:07;2.20;99.90
13464;DHT22;6804;48.774;9.174;2023-02-28T10:43:37;2.40;99.90
13464;DHT22;6804;48.774;9.174;2023-02-28T10:46:15;2.60;99.90
13464;DHT22;6804;48.774;9.174;2023-02-28T10:49:01;2.80;99.90
13464;DHT22;6804;48.774;9.174;2023-02-28T10:51:36;2.80;99.90
13464;DHT22;6804;48.774;9.174;2023-02-28T10:54:04;2.70;99.90
13464;DHT22;6804;48.774;9.174;2023-02-28T10:56:32;2.50;99.90
13464;DHT22;6804;48.774;9.174;2023-02-28T10:59:01;2.30;99.90
13464;DHT22;6804;48.774;9.174;2023-02-28T11:01:38;2.40;99.90
13464;DHT22;6804;48.774;9.174;2023-02-28T11:04:17;2.50;99.90
13464;DHT22;6804;48.774;9.174;2023-02-28T11:06:45;2.70;99.90
13464;DHT22;6804;48.774;9.174;2023-02-28T11:09:20;2.80;99.90
13464;DHT22;6804;48.774;9.174;2023-02-28T11:11:50;2.80;99.90
13464;DHT22;6804;48.774;9.174;2023-02-28T11:14:20;2.60;99.90
13464;DHT22;6804;48.774;9.174;2023-02-28T11:16:51;2.70;99.90
13464;DHT22;6804;48.774;9.174;2023-02-28T11:19:26;2.70;99.90
13464;DHT22;6804;48.774;9.174;2023-02-28T11:21:57;2.80;99.90
13464;DHT22;6804;48.774;9.174;2023-02-28T11:24:29;3.10;99.90
13464;DHT22;6804;48.774;9.174;2023-02-28T11:27:05;3.00;99.90
13464;DHT22;6804;48.774;9.174;2023-02-28T11:29:47;2.90;99.90
13464;DHT22;6804;48.774;9.174;2023-02-28T11:32:19;2.90;99.90
13464;DHT22;6804;48.774;9.174;2023-02-28T11:35:00;3.00;99.90
13464;DHT22;6804;48.774;9.174;2023-02-28T11:37:29;3.10;99.90
13464;DHT22;6804;48.774;9.174;2023-02-28T11:39:57;3.20;99.90
13464;DHT22;6804;48.774;9.174;2023-02-28T11:42:40;3.30;99.90
13464;DHT22;6804;48.774;9.174;2023-02-28T11:45:21;3.30;99.90
13464;DHT22;6804;48.774;9.174;2023-02-28T11:48:00;3.30;99.90
13464;DHT22;6804;48.774;9.174;2023-02-28T11:50:43;3.30;99.90
13464;DHT22;6804;48.774;9.174;2023-02-28T11:53:20;3.30;99.90
13464;DHT22;6804;48.774;9.174;2023-02-28T11:55:54;3.50;99.90
13464;DHT22;6804;48.774;9.174;2023-02-28T11:58:38;3.80;99.90
13464;DHT22;6804;48.774;9.174;2023-02-28T12:01:18;3.90;99.90
13464;DHT22;6804;48.774;9.174;2023-02-28T12:04:03;4.10;99.90
13464;DHT22;6804;48.774;9.174;2023-02-28T12:06:46;3.90;99.90
13464;DHT22;6804;48.774;9.174;2023-02-28T12:09:43;3.70;99.90
13464;DHT22;6804;48.774;9.174;2023-02-28T12:12:23;3.60;99.90
13464;DHT22;6804;48.774;9.174;2023-02-28T12:18:27;3.70;99.90
13464;DHT22;6804;48.774;9.174;2023-02-28T12:21:08;3.90;99.90
13464;DHT22;6804;48.774;9.174;2023-02-28T12:24:00;4.10;99.90
13464;DHT22;6804;48.774;9.174;2023-02-28T12:26:39;4.00;99.90
13464;DHT22;6804;48.774;9.174;2023-02-28T12:29:15;3.90;99.90
13464;DHT22;6804;48.774;9.174;2023-02-28T12:31:48;4.00;99.90
13464;DHT22;6804;48.774;9.174;2023-02-28T12:34:20;4.20;99.90
13464;DHT22;6804;48.774;9.174;2023-02-28T12:36:52;4.30;99.90
13464;DHT22;6804;48.774;9.174;2023-02-28T12:39:32;4.40;99.90
13464;DHT22;6804;48.774;9.174;2023-02-28T12:42:12;4.60;99.90
13464;DHT22;6804;48.774;9.174;2023-02-28T12:44:49;4.60;99.80
13464;DHT22;6804;48.774;9.174;2023-02-28T12:47:22;4.40;99.60
13464;DHT22;6804;48.774;9.174;2023-02-28T12:49:52;4.40;99.90
13464;DHT22;6804;48.774;9.174;2023-02-28T12:52:35;4.30;99.70
13464;DHT22;6804;48.774;9.174;2023-02-28T12:55:14;4.30;99.70
13464;DHT22;6804;48.774;9.174;2023-02-28T12:57:57;4.50;99.90
13464;DHT22;6804;48.774;9.174;2023-02-28T13:00:33;4.70;99.60
13464;DHT22;6804;48.774;9.174;2023-02-28T13:03:33;4.70;99.60
13464;DHT22;6804;48.774;9.174;2023-02-28T13:06:23;4.70;99.80
13464;DHT22;6804;48.774;9.174;2023-02-28T13:09:10;4.80;99.60
13464;DHT22;6804;48.774;9.174;2023-02-28T13:11:42;4.90;99.10
13464;DHT22;6804;48.774;9.174;2023-02-28T13:14:24;4.90;99.30
13464;DHT22;6804;48.774;9.174;2023-02-28T13:17:03;5.10;99.20
13464;DHT22;6804;48.774;9.174;2023-02-28T13:19:39;5.20;98.90
13464;DHT22;6804;48.774;9.174;2023-02-28T13:22:40;5.40;99.90
13464;DHT22;6804;48.774;9.174;2023-02-28T13:31:28;5.70;98.00
13464;DHT22;6804;48.774;9.174;2023-02-28T13:34:16;5.60;98.70
13464;DHT22;6804;48.774;9.174;2023-02-28T13:36:46;5.80;98.70
13464;DHT22;6804;48.774;9.174;2023-02-28T13:39:47;6.00;98.10
13464;DHT22;6804;48.774;9.174;2023-02-28T13:42:46;6.10;97.80
13464;DHT22;6804;48.774;9.174;2023-02-28T13:45:26;6.40;98.30
13464;DHT22;6804;48.774;9.174;2023-02-28T13:48:00;6.60;97.30
13464;DHT22;6804;48.774;9.174;2023-02-28T13:50:32;6.80;96.80
13464;DHT22;6804;48.774;9.174;2023-02-28T13:53:28;6.80;96.70
13464;DHT22;6804;48.774;9.174;2023-02-28T13:56:05;6.80;97.00
13464;DHT22;6804;48.774;9.174;2023-02-28T13:58:51;6.80;97.30
13464;DHT22;6804;48.774;9.174;2023-02-28T14:01:34;7.10;97.40
13464;DHT22;6804;48.774;9.174;2023-02-28T14:07:21;6.70;96.70
13464;DHT22;6804;48.774;9.174;2023-02-28T14:09:56;7.00;97.00
13464;DHT22;6804;48.774;9.174;2023-02-28T14:15:49;6.40;96.20
13464;DHT22;6804;48.774;9.174;2023-02-28T14:18:27;6.20;96.70
13464;DHT22;6804;48.774;9.174;2023-02-28T14:21:11;6.10;96.90
13464;DHT22;6804;48.774;9.174;2023-02-28T14:23:57;6.10;97.00
13464;DHT22;6804;48.774;9.174;2023-02-28T14:26:41;5.90;96.70
13464;DHT22;6804;48.774;9.174;2023-02-28T14:29:35;5.90;97.00
13464;DHT22;6804;48.774;9.174;2023-02-28T14:32:17;5.90;97.20
13464;DHT22;6804;48.774;9.174;2023-02-28T14:34:53;6.10;97.00
13464;DHT22;6804;48.774;9.174;2023-02-28T14:37:27;6.30;97.00
13464;DHT22;6804;48.774;9.174;2023-02-28T14:40:11;6.50;96.60
13464;DHT22;6804;48.774;9.174;2023-02-28T14:42:39;6.60;97.10
13464;DHT22;6804;48.774;9.174;2023-02-28T14:45:21;6.80;97.10
13464;DHT22;6804;48.774;9.174;2023-02-28T14:47:52;7.10;96.70
13464;DHT22;6804;48.774;9.174;2023-02-28T14:50:26;7.10;95.50
13464;DHT22;6804;48.774;9.174;2023-02-28T14:52:54;6.70;95.80
13464;DHT22;6804;48.774;9.174;2023-02-28T14:55:24;6.40;96.30
13464;DHT22;6804;48.774;9.174;2023-02-28T14:57:55;6.40;96.40
13464;DHT22;6804;48.774;9.174;2023-02-28T15:00:27;6.40;96.30
13464;DHT22;6804;48.774;9.174;2023-02-28T15:03:13;6.30;96.40
13464;DHT22;6804;48.774;9.174;2023-02-28T15:05:51;6.30;96.50
13464;DHT22;6804;48.774;9.174;2023-02-28T15:08:24;6.20;96.80
13464;DHT22;6804;48.774;9.174;2023-02-28T15:10:54;6.20;96.70
13464;DHT22;6804;48.774;9.174;2023-02-28T15:13:23;5.90;96.80
13464;DHT22;6804;48.774;9.174;2023-02-28T15:15:54;5.90;97.00
13464;DHT22;6804;48.774;9.174;2023-02-28T15:18:31;6.00;97.20
13464;DHT22;6804;48.774;9.174;2023-02-28T15:21:09;6.10;97.00
13464;DHT22;6804;48.774;9.174;2023-02-28T15:23:48;6.20;97.10
13464;DHT22;6804;48.774;9.174;2023-02-28T15:26:18;6.30;97.00
13464;DHT22;6804;48.774;9.174;2023-02-28T15:28:57;6.10;96.90
13464;DHT22;6804;48.774;9.174;2023-02-28T15:31:28;6.20;97.10
13464;DHT22;6804;48.774;9.174;2023-02-28T15:34:05;6.30;97.30
13464;DHT22;6804;48.774;9.174;2023-02-28T15:36:34;6.50;97.60
13464;DHT22;6804;48.774;9.174;2023-02-28T15:39:16;6.60;97.10
13464;DHT22;6804;48.774;9.174;2023-02-28T15:41:45;6.70;96.80
13464;DHT22;6804;48.774;9.174;2023-02-28T15:44:26;6.70;96.70
13464;DHT22;6804;48.774;9.174;2023-02-28T15:46:59;6.60;96.80
13464;DHT22;6804;48.774;9.174;2023-02-28T15:49:34;6.70;97.30
13464;DHT22;6804;48.774;9.174;2023-02-28T15:52:03;6.70;96.70
13464;DHT22;6804;48.774;9.174;2023-02-28T15:54:35;6.50;96.60
13464;DHT22;6804;48.774;9.174;2023-02-28T15:57:07;6.30;96.80
13464;DHT22;6804;48.774;9.174;2023-02-28T15:59:36;6.20;97.00
13464;DHT22;6804;48.774;9.174;2023-02-28T16:02:15;6.10;97.20
13464;DHT22;6804;48.774;9.174;2023-02-28T16:05:01;5.80;97.70
13464;DHT22;6804;48.774;9.174;2023-02-28T16:07:29;5.90;98.00
13464;DHT22;6804;48.774;9.174;2023-02-28T16:09:57;5.90;97.80
13464;DHT22;6804;48.774;9.174;2023-02-28T16:12:27;5.90;97.70
13464;DHT22;6804;48.774;9.174;2023-02-28T16:14:56;5.90;97.60
13464;DHT22;6804;48.774;9.174;2023-02-28T16:17:26;5.80;97.80
13464;DHT22;6804;48.774;9.174;2023-02-28T16:19:58;6.00;98.30
13464;DHT22;6804;48.774;9.174;2023-02-28T16:22:25;6.10;97.80
13464;DHT22;6804;48.774;9.174;2023-02-28T16:24:55;6.20;97.70
13464;DHT22;6804;48.774;9.174;2023-02-28T16:27:30;6.20;97.60
13464;DHT22;6804;48.774;9.174;2023-02-28T16:30:02;6.10;97.50
13464;DHT22;6804;48.774;9.174;2023-02-28T16:32:34;6.10;98.00
13464;DHT22;6804;48.774;9.174;2023-02-28T16:35:06;6.30;97.80
13464;DHT22;6804;48.774;9.174;2023-02-28T16:37:36;6.30;97.70
13464;DHT22;6804;48.774;9.174;2023-02-28T16:40:07;6.30;97.50
13464;DHT22;6804;48.774;9.174;2023-02-28T16:42:38;6.30;97.50
13464;DHT22;6804;48.774;9.174;2023-02-28T16:45:08;6.30;97.60
13464;DHT22;6804;48.774;9.174;2023-02-28T16:47:38;6.20;97.50
13464;DHT22;6804;48.774;9.174;2023-02-28T16:50:13;6.10;97.80
13464;DHT22;6804;48.774;9.174;2023-02-28T16:52:47;6.20;98.10
13464;DHT22;6804;48.774;9.174;2023-02-28T16:55:15;6.30;97.70
13464;DHT22;6804;48.774;9.174;2023-02-28T16:57:49;6.30;97.80
13464;DHT22;6804;48.774;9.174;2023-02-28T17:00:18;6.30;97.70